Time;durP1;ratioP1;P1;durP2;ratioP2;P2;SDS_P1;SDS_P2;PMS_P1;PMS_P2;Temp;Humidity;BMP_temperature;BMP_pressure;BME280_temperature;BME280_humidity;BME280_pressure;Samples;Min_cycle;Max_cycle;Signal;HPM_P1;HPM_P2
2022/09/05 00:01:03;;;;;;;8.60;2.17;;;29.20;99.90;;;;;;5003507;28;20048;-52
2022/09/05 00:03:45;;;;;;;12.05;2.50;;;29.20;99.90;;;;;;4999964;28;20038;-50
2022/09/05 00:06:15;;;;;;;6.43;2.38;;;29.20;99.90;;;;;;5005130;28;20033;-51
2022/09/05 00:08:51;;;;;;;5.50;2.78;;;29.20;99.90;;;;;;5005039;28;20045;-52
2022/09/05 00:11:41;;;;;;;6.38;2.45;;;29.20;99.90;;;;;;4998039;28;20110;-53
2022/09/05 00:14:33;;;;;;;6.75;2.00;;;29.20;99.90;;;;;;4996221;28;20033;-57
2022/09/05 00:17:24;;;;;;;9.80;2.60;;;29.20;99.90;;;;;;5009071;28;20026;-53
2022/09/05 00:20:21;;;;;;;11.18;3.03;;;29.20;99.90;;;;;;5003786;28;20066;-54
2022/09/05 00:22:52;;;;;;;;;;;29.10;99.90;;;;;;4994772;28;20026;-53
2022/09/05 00:25:42;;;;;;;9.80;3.17;;;29.10;99.90;;;;;;5000985;28;19988;-53
2022/09/05 00:28:19;;;;;;;10.10;3.10;;;29.00;99.90;;;;;;4994844;28;20057;-51
2022/09/05 00:31:10;;;;;;;16.50;4.60;;;28.90;99.90;;;;;;5002127;28;20062;-50
2022/09/05 00:34:00;;;;;;;6.22;2.78;;;28.90;99.90;;;;;;5002131;28;20208;-54
2022/09/05 00:36:48;;;;;;;13.52;2.92;;;28.80;99.90;;;;;;4993082;28;20037;-53
2022/09/05 00:39:31;;;;;;;9.52;2.90;;;28.70;99.90;;;;;;5005095;28;20022;-52
2022/09/05 00:42:12;;;;;;;11.35;2.40;;;28.70;99.90;;;;;;4998028;28;20084;-52
2022/09/05 00:44:55;;;;;;;10.45;2.47;;;28.70;99.90;;;;;;4994056;28;20041;-52
2022/09/05 00:47:44;;;;;;;12.50;2.70;;;28.60;99.90;;;;;;4997565;28;20069;-53
2022/09/05 00:50:41;;;;;;;10.68;3.47;;;28.60;99.90;;;;;;4996562;28;20516;-51
2022/09/05 00:53:19;;;;;;;;;;;28.50;99.90;;;;;;4994568;28;20046;-53
2022/09/05 00:56:18;;;;;;;7.38;2.47;;;28.40;99.90;;;;;;4997593;28;19964;-54
2022/09/05 00:59:25;;;;;;;11.93;2.75;;;28.30;99.90;;;;;;4994303;28;20475;-54
2022/09/05 01:02:13;;;;;;;8.00;2.58;;;28.20;99.90;;;;;;4993597;28;20077;-55
2022/09/05 01:04:59;;;;;;;12.73;2.65;;;28.10;99.90;;;;;;4993540;28;20030;-56
2022/09/05 01:07:51;;;;;;;12.07;2.95;;;27.90;99.90;;;;;;4993795;28;20034;-54
2022/09/05 01:10:20;;;;;;;10.23;2.67;;;27.80;99.90;;;;;;4965666;28;20450;-51
2022/09/05 01:13:01;;;;;;;12.13;2.85;;;27.70;99.90;;;;;;5001580;28;20030;-55
2022/09/05 01:15:45;;;;;;;14.75;2.78;;;27.60;99.90;;;;;;4992666;28;20482;-53
2022/09/05 01:18:30;;;;;;;13.63;2.45;;;27.50;99.90;;;;;;4992266;28;20026;-55
2022/09/05 01:21:25;;;;;;;9.90;2.83;;;27.40;99.90;;;;;;4992659;28;20387;-53
2022/09/05 01:24:18;;;;;;;10.85;2.92;;;27.40;99.90;;;;;;4998423;28;20464;-51
2022/09/05 01:27:15;;;;;;;5.45;1.70;;;27.30;99.90;;;;;;4993323;28;20064;-55
2022/09/05 01:29:57;;;;;;;8.25;2.35;;;27.30;99.90;;;;;;4993467;28;20136;-53
2022/09/05 01:32:33;;;;;;;11.05;2.20;;;27.20;99.90;;;;;;4993361;28;20084;-52
2022/09/05 01:35:21;;;;;;;11.52;2.85;;;27.30;99.90;;;;;;4993068;28;20035;-50
2022/09/05 01:37:55;;;;;;;15.15;3.45;;;27.20;99.90;;;;;;4993704;28;20118;-52
2022/09/05 01:40:48;;;;;;;12.50;2.70;;;27.20;99.90;;;;;;4995346;28;20266;-51
2022/09/05 01:43:44;;;;;;;13.93;3.35;;;27.20;99.90;;;;;;4995766;28;20026;-51
2022/09/05 01:46:21;;;;;;;16.25;2.83;;;27.10;99.90;;;;;;4992032;28;20038;-51
2022/09/05 01:49:07;;;;;;;;;;;27.10;99.90;;;;;;4993573;28;20040;-54
2022/09/05 01:51:54;;;;;;;12.20;2.88;;;27.10;99.90;;;;;;4992403;28;19913;-53
2022/09/05 01:54:59;;;;;;;9.98;2.60;;;27.00;99.90;;;;;;5004464;28;20065;-52
2022/09/05 01:58:03;;;;;;;14.98;3.45;;;26.90;99.90;;;;;;4992629;28;20034;-50
2022/09/05 02:01:01;;;;;;;13.05;2.67;;;26.80;99.90;;;;;;4962797;28;20537;-54
2022/09/05 02:03:42;;;;;;;13.68;3.58;;;26.70;99.90;;;;;;4992410;28;20045;-53
2022/09/05 02:06:26;;;;;;;11.70;2.85;;;26.70;99.90;;;;;;4992531;28;20059;-54
2022/09/05 02:09:12;;;;;;;9.18;2.40;;;26.60;99.90;;;;;;4994600;28;20034;-52
2022/09/05 02:11:49;;;;;;;10.88;2.60;;;26.60;99.90;;;;;;4993328;28;20037;-53
2022/09/05 02:14:43;;;;;;;12.52;2.22;;;26.60;99.90;;;;;;4992609;28;20456;-52
2022/09/05 02:17:12;;;;;;;8.75;2.33;;;26.50;99.90;;;;;;4992355;28;20460;-51
2022/09/05 02:19:49;;;;;;;9.50;2.15;;;26.60;99.90;;;;;;4992433;28;20030;-52
2022/09/05 02:22:26;;;;;;;9.30;4.03;;;26.50;99.90;;;;;;4992363;28;20035;-52
2022/09/05 02:25:03;;;;;;;;;;;26.60;99.90;;;;;;4991779;28;20410;-50
2022/09/05 02:27:40;;;;;;;8.13;2.35;;;26.60;99.90;;;;;;4992218;28;19992;-50
2022/09/05 02:30:11;;;;;;;6.78;1.88;;;26.60;99.90;;;;;;5006463;28;20044;-50
2022/09/05 02:33:16;;;;;;;8.50;2.63;;;26.60;99.90;;;;;;4992234;28;20026;-51
2022/09/05 02:36:12;;;;;;;10.00;2.83;;;26.70;99.90;;;;;;4988490;28;20037;-51
2022/09/05 02:38:51;;;;;;;7.15;2.30;;;26.70;99.90;;;;;;4991770;28;20014;-50
2022/09/05 02:41:38;;;;;;;5.10;1.50;;;26.70;99.90;;;;;;5009042;28;20238;-51
2022/09/05 02:44:13;;;;;;;4.43;1.40;;;26.80;99.90;;;;;;5001215;28;20026;-52
2022/09/05 02:47:01;;;;;;;5.82;1.75;;;26.80;99.90;;;;;;4991955;28;20034;-51
2022/09/05 02:49:46;;;;;;;;;;;26.90;99.90;;;;;;4992384;28;20080;-51
2022/09/05 02:52:15;;;;;;;5.40;1.77;;;26.90;99.90;;;;;;4991477;28;19910;-51
2022/09/05 02:54:48;;;;;;;6.68;1.70;;;27.00;99.90;;;;;;4990476;28;20474;-52
2022/09/05 02:57:29;;;;;;;6.35;3.25;;;27.00;99.90;;;;;;4991871;28;20052;-51
2022/09/05 03:00:02;;;;;;;6.72;1.90;;;27.00;99.90;;;;;;5021411;23;20155;-47
2022/09/05 03:02:56;;;;;;;5.57;1.83;;;27.10;99.90;;;;;;4972368;28;20030;-47
2022/09/05 03:05:51;;;;;;;2.42;1.13;;;27.10;99.90;;;;;;4970913;28;20023;-47
2022/09/05 03:08:42;;;;;;;4.60;1.25;;;27.20;99.90;;;;;;4972218;28;20387;-47
2022/09/05 03:11:11;;;;;;;4.28;1.73;;;27.20;99.90;;;;;;4972294;28;20018;-47
2022/09/05 03:13:42;;;;;;;4.47;2.08;;;27.20;99.90;;;;;;4971697;28;20078;-48
2022/09/05 03:16:39;;;;;;;2.10;1.30;;;27.20;99.90;;;;;;4972525;28;20019;-48
2022/09/05 03:19:29;;;;;;;3.83;1.27;;;27.30;99.90;;;;;;4972383;28;20023;-48
2022/09/05 03:22:16;;;;;;;4.80;1.33;;;27.30;99.90;;;;;;4972439;28;20039;-48
2022/09/05 03:25:19;;;;;;;3.22;1.38;;;27.40;99.90;;;;;;4972320;28;20138;-48
2022/09/05 03:28:19;;;;;;;4.65;1.67;;;27.40;99.90;;;;;;4972348;28;20042;-48
2022/09/05 03:31:22;;;;;;;4.97;1.30;;;27.50;99.90;;;;;;4972335;28;20035;-48
2022/09/05 03:34:18;;;;;;;5.85;1.92;;;27.50;99.90;;;;;;4972232;28;20026;-48
2022/09/05 03:37:03;;;;;;;6.25;2.00;;;27.40;99.90;;;;;;4972660;28;20033;-48
2022/09/05 03:39:50;;;;;;;7.30;1.52;;;27.50;99.90;;;;;;4972327;28;20414;-48
2022/09/05 03:42:34;;;;;;;4.35;1.70;;;27.50;99.90;;;;;;4972417;28;20089;-48
2022/09/05 03:45:30;;;;;;;4.95;1.60;;;27.50;99.90;;;;;;4972298;28;20027;-48
2022/09/05 03:48:25;;;;;;;6.63;2.15;;;27.50;99.90;;;;;;4972284;28;20043;-48
2022/09/05 03:51:30;;;;;;;4.13;1.65;;;27.50;99.90;;;;;;4972270;28;20070;-48
2022/09/05 03:54:22;;;;;;;4.78;1.38;;;27.50;99.90;;;;;;4972218;28;20035;-48
2022/09/05 03:57:02;;;;;;;3.60;1.50;;;27.50;99.90;;;;;;4972196;28;20554;-48
2022/09/05 03:59:28;;;;;;;3.13;1.30;;;27.60;99.90;;;;;;4985431;23;20364;-50
2022/09/05 04:02:03;;;;;;;7.75;2.15;;;27.50;99.90;;;;;;4972296;28;20045;-50
2022/09/05 04:04:35;;;;;;;3.38;1.48;;;27.50;99.90;;;;;;4972266;28;20023;-50
2022/09/05 04:07:19;;;;;;;2.38;1.10;;;27.60;99.90;;;;;;4972045;28;20031;-50
2022/09/05 04:09:47;;;;;;;7.75;1.88;;;27.60;99.90;;;;;;4971893;28;20122;-50
2022/09/05 04:12:31;;;;;;;2.10;1.35;;;27.60;99.90;;;;;;4973738;28;20501;-50
2022/09/05 04:15:13;;;;;;;5.88;1.45;;;27.60;99.90;;;;;;4975926;28;20038;-50
2022/09/05 04:17:45;;;;;;;6.05;1.75;;;27.60;99.90;;;;;;4975688;28;20097;-50
2022/09/05 04:20:24;;;;;;;4.13;1.38;;;27.60;99.90;;;;;;4975805;28;20027;-50
2022/09/05 04:23:04;;;;;;;7.45;1.58;;;27.60;99.90;;;;;;4975432;28;20033;-50
2022/09/05 04:25:57;;;;;;;3.65;2.03;;;27.70;99.90;;;;;;4975372;28;20173;-50
2022/09/05 04:28:25;;;;;;;6.57;1.40;;;27.70;99.90;;;;;;4975349;28;20042;-50
2022/09/05 04:31:00;;;;;;;6.15;1.80;;;27.60;99.90;;;;;;4975353;28;20538;-50
2022/09/05 04:33:45;;;;;;;4.78;1.20;;;27.60;99.90;;;;;;4975345;28;20498;-49
2022/09/05 04:36:31;;;;;;;7.13;1.75;;;27.70;99.90;;;;;;4975132;28;20038;-50
2022/09/05 04:39:16;;;;;;;4.85;1.70;;;27.70;99.90;;;;;;4975313;28;20034;-51
2022/09/05 04:41:48;;;;;;;3.10;1.30;;;27.70;99.90;;;;;;4975136;28;20109;-50
2022/09/05 04:44:17;;;;;;;7.63;1.70;;;27.70;99.90;;;;;;4975017;28;20035;-50
2022/09/05 04:46:53;;;;;;;10.35;1.48;;;27.70;99.90;;;;;;4973784;28;20621;-50
2022/09/05 04:49:22;;;;;;;8.77;1.77;;;27.70;99.90;;;;;;4974751;28;20042;-50
2022/09/05 04:52:08;;;;;;;9.82;2.60;;;27.60;99.90;;;;;;4974954;28;20038;-50
2022/09/05 04:54:48;;;;;;;10.23;2.10;;;27.60;99.90;;;;;;4974675;28;20030;-49
2022/09/05 04:57:36;;;;;;;12.93;2.00;;;27.60;99.90;;;;;;4974586;28;20048;-50
2022/09/05 05:00:05;;;;;;;15.80;2.28;;;27.50;99.90;;;;;;4973361;28;20064;-50
2022/09/05 05:02:33;;;;;;;18.08;5.43;;;27.40;99.90;;;;;;4974921;28;20031;-50
2022/09/05 05:05:02;;;;;;;13.38;3.92;;;27.40;99.90;;;;;;4974781;28;20073;-50
2022/09/05 05:07:33;;;;;;;7.70;2.78;;;27.30;99.90;;;;;;4974688;28;20023;-50
2022/09/05 05:10:01;;;;;;;9.82;1.92;;;27.30;99.90;;;;;;4974686;28;20085;-50
2022/09/05 05:12:59;;;;;;;11.20;2.50;;;27.30;99.90;;;;;;4974633;28;20467;-50
2022/09/05 05:15:26;;;;;;;7.88;3.10;;;27.30;99.90;;;;;;4974371;28;20034;-50
2022/09/05 05:17:56;;;;;;;8.13;2.03;;;27.40;99.90;;;;;;4973290;28;20031;-49
2022/09/05 05:20:24;;;;;;;5.28;2.00;;;27.40;99.90;;;;;;4974454;28;20063;-50
2022/09/05 05:23:05;;;;;;;6.88;2.25;;;27.40;99.90;;;;;;4973454;28;20031;-50
2022/09/05 05:25:39;;;;;;;10.55;2.88;;;27.40;99.90;;;;;;4974410;28;20499;-50
2022/09/05 05:28:17;;;;;;;20.00;3.53;;;27.40;99.90;;;;;;4974151;28;20475;-50
2022/09/05 05:30:43;;;;;;;10.13;3.30;;;27.40;99.90;;;;;;4974253;28;20123;-50
2022/09/05 05:33:28;;;;;;;13.40;3.13;;;27.40;99.90;;;;;;4973967;28;20047;-50
2022/09/05 05:35:57;;;;;;;6.38;2.05;;;27.40;99.90;;;;;;4974014;28;20368;-50
2022/09/05 05:38:41;;;;;;;14.40;2.60;;;27.40;99.90;;;;;;4972890;28;20078;-50
2022/09/05 05:41:25;;;;;;;11.77;2.10;;;27.40;99.90;;;;;;4973901;28;20113;-50
2022/09/05 05:43:51;;;;;;;9.85;2.53;;;27.40;99.90;;;;;;4973983;28;20447;-50
2022/09/05 05:46:31;;;;;;;11.57;2.63;;;27.40;99.90;;;;;;4973882;28;20031;-50
2022/09/05 05:49:21;;;;;;;6.57;2.03;;;27.50;99.90;;;;;;4973678;28;20043;-50
2022/09/05 05:52:11;;;;;;;17.15;4.03;;;27.40;99.90;;;;;;4973556;28;20233;-50
2022/09/05 05:54:59;;;;;;;14.70;2.90;;;27.50;99.90;;;;;;4973424;28;20054;-50
2022/09/05 05:58:05;;;;;;;36.03;3.67;;;27.50;99.90;;;;;;4973576;28;20114;-50
2022/09/05 06:01:12;;;;;;;11.67;2.10;;;27.50;99.90;;;;;;4973630;28;20043;-50
2022/09/05 06:03:37;;;;;;;29.00;3.95;;;27.50;99.90;;;;;;4962909;28;20041;-50
2022/09/05 06:06:39;;;;;;;14.45;2.00;;;27.50;99.90;;;;;;4973643;28;20126;-50
2022/09/05 06:09:24;;;;;;;14.63;2.92;;;27.50;99.90;;;;;;4973205;28;20035;-50
2022/09/05 06:12:03;;;;;;;17.00;2.75;;;27.50;99.90;;;;;;4973254;28;20023;-50
2022/09/05 06:15:07;;;;;;;12.45;2.20;;;27.50;99.90;;;;;;4973133;28;20077;-50
2022/09/05 06:17:54;;;;;;;21.15;2.50;;;27.50;99.90;;;;;;4973414;28;20054;-50
2022/09/05 06:20:23;;;;;;;;;;;27.50;99.90;;;;;;4973591;28;20106;-50
2022/09/05 06:23:00;;;;;;;19.23;2.80;;;27.50;99.90;;;;;;4973100;28;20469;-50
2022/09/05 06:25:47;;;;;;;25.13;3.50;;;27.50;99.90;;;;;;4972900;28;20041;-50
2022/09/05 06:28:34;;;;;;;17.08;3.13;;;27.50;99.90;;;;;;4972937;28;20382;-50
2022/09/05 06:31:13;;;;;;;16.27;2.67;;;27.50;99.90;;;;;;4972844;28;20089;-50
2022/09/05 06:33:48;;;;;;;19.70;2.60;;;27.50;99.90;;;;;;4972866;28;20074;-50
2022/09/05 06:36:46;;;;;;;17.02;2.38;;;27.50;99.90;;;;;;4972668;28;20090;-50
2022/09/05 06:39:51;;;;;;;19.80;2.78;;;27.50;99.90;;;;;;4972767;28;20031;-50
2022/09/05 06:42:20;;;;;;;13.60;2.35;;;27.50;99.90;;;;;;4972710;28;20034;-50
2022/09/05 06:45:13;;;;;;;24.63;2.63;;;27.50;99.90;;;;;;4972549;28;20035;-50
2022/09/05 06:47:43;;;;;;;27.98;3.05;;;27.50;99.90;;;;;;4972659;28;20031;-50
2022/09/05 06:50:23;;;;;;;21.95;2.67;;;27.50;99.90;;;;;;4972770;28;20035;-50
2022/09/05 06:53:09;;;;;;;35.30;3.22;;;27.60;99.90;;;;;;4972628;28;20046;-50
2022/09/05 06:55:56;;;;;;;21.13;2.42;;;27.50;99.90;;;;;;4972660;28;20034;-50
2022/09/05 06:58:37;;;;;;;14.38;2.03;;;27.60;99.90;;;;;;4972648;28;20034;-50
2022/09/05 07:01:05;;;;;;;11.70;2.10;;;27.60;99.90;;;;;;4972860;28;20058;-50
2022/09/05 07:03:56;;;;;;;16.40;1.92;;;27.60;99.90;;;;;;4972546;28;20041;-50
2022/09/05 07:06:34;;;;;;;16.35;2.17;;;27.60;99.90;;;;;;4972400;28;20025;-50
2022/09/05 07:09:22;;;;;;;23.02;3.33;;;27.60;99.90;;;;;;4972532;28;20502;-50
2022/09/05 07:12:07;;;;;;;;;;;27.70;99.90;;;;;;4972878;28;20027;-50
2022/09/05 07:15:00;;;;;;;15.02;2.15;;;27.70;99.90;;;;;;4965153;28;19957;-50
2022/09/05 07:17:50;;;;;;;19.38;2.40;;;27.70;99.90;;;;;;4972481;28;20023;-50
2022/09/05 07:20:22;;;;;;;12.75;2.00;;;27.70;99.90;;;;;;4972233;28;20058;-50
2022/09/05 07:22:54;;;;;;;11.68;2.10;;;27.70;99.90;;;;;;4972138;28;20258;-51
2022/09/05 07:25:28;;;;;;;15.75;3.10;;;27.70;99.90;;;;;;4972191;28;20494;-50
2022/09/05 07:28:02;;;;;;;10.25;3.13;;;27.70;99.90;;;;;;4972042;28;20034;-50
2022/09/05 07:30:29;;;;;;;5.95;2.28;;;27.80;99.90;;;;;;4972147;28;20146;-51
2022/09/05 07:32:58;;;;;;;8.02;2.55;;;27.80;99.90;;;;;;4972081;28;20110;-50
2022/09/05 07:35:23;;;;;;;14.55;2.60;;;27.80;99.90;;;;;;4972022;28;20035;-50
2022/09/05 07:38:12;;;;;;;3.70;1.52;;;27.80;99.90;;;;;;4971971;28;20384;-50
2022/09/05 07:40:51;;;;;;;9.27;2.17;;;27.80;99.90;;;;;;4970831;28;20077;-50
2022/09/05 07:43:28;;;;;;;7.32;1.60;;;27.80;99.90;;;;;;4972128;28;20023;-50
2022/09/05 07:46:10;;;;;;;4.57;1.58;;;27.80;99.90;;;;;;4970799;28;20033;-50
2022/09/05 07:48:44;;;;;;;5.22;1.80;;;27.80;99.90;;;;;;4975771;28;20039;-50
2022/09/05 07:51:19;;;;;;;7.82;1.77;;;27.90;99.90;;;;;;4975719;28;20025;-50
2022/09/05 07:53:46;;;;;;;5.40;1.55;;;27.90;99.90;;;;;;4975737;28;20493;-50
2022/09/05 07:56:14;;;;;;;7.82;2.00;;;27.90;99.90;;;;;;4975634;28;20034;-50
2022/09/05 07:58:49;;;;;;;3.92;1.60;;;27.90;99.90;;;;;;4975827;28;20058;-50
2022/09/05 08:01:17;;;;;;;10.60;1.60;;;27.90;99.90;;;;;;4975365;28;20047;-50
2022/09/05 08:03:44;;;;;;;13.70;2.92;;;28.00;99.90;;;;;;4975709;28;20494;-57
2022/09/05 08:06:22;;;;;;;6.07;1.90;;;28.00;99.90;;;;;;4975733;28;20476;-50
2022/09/05 08:09:18;;;;;;;8.50;1.33;;;28.00;99.90;;;;;;4975325;28;20077;-50
2022/09/05 08:11:46;;;;;;;7.75;1.98;;;28.10;99.90;;;;;;4975463;28;20019;-50
2022/09/05 08:14:41;;;;;;;13.32;2.10;;;28.10;99.90;;;;;;4975344;28;20035;-50
2022/09/05 08:17:17;;;;;;;11.32;2.30;;;28.10;99.90;;;;;;4975684;28;20090;-50
2022/09/05 08:20:13;;;;;;;9.88;2.42;;;28.10;99.90;;;;;;4975363;28;20031;-50
2022/09/05 08:23:18;;;;;;;14.15;2.33;;;28.10;99.90;;;;;;4975427;28;20070;-50
2022/09/05 08:26:12;;;;;;;12.02;2.30;;;28.10;99.90;;;;;;4967391;28;20086;-50
2022/09/05 08:29:15;;;;;;;13.02;2.53;;;28.10;99.90;;;;;;4975347;28;20031;-50
2022/09/05 08:31:51;;;;;;;9.73;2.95;;;28.10;99.90;;;;;;4975348;28;20033;-51
2022/09/05 08:34:28;;;;;;;9.35;2.00;;;28.10;99.90;;;;;;4975146;28;20022;-50
2022/09/05 08:36:56;;;;;;;6.65;2.00;;;28.10;99.90;;;;;;4975247;28;20050;-50
2022/09/05 08:39:28;;;;;;;8.68;1.90;;;28.10;99.90;;;;;;4974949;28;20105;-50
2022/09/05 08:41:59;;;;;;;10.70;2.00;;;28.10;99.90;;;;;;4974665;28;20065;-50
2022/09/05 08:45:19;;;;;;;15.90;3.00;;;28.00;99.90;;;;;;4974827;28;20027;-50
2022/09/05 08:48:12;;;;;;;14.50;3.35;;;28.00;99.90;;;;;;4952977;29;20443;-50
2022/09/05 08:51:02;;;;;;;7.25;2.00;;;28.00;99.90;;;;;;4952795;29;20066;-50
2022/09/05 08:53:37;;;;;;;10.98;2.47;;;27.90;99.90;;;;;;4965846;28;20039;-50
2022/09/05 08:56:14;;;;;;;11.88;2.22;;;27.90;99.90;;;;;;4974466;28;20023;-50
2022/09/05 08:59:16;;;;;;;7.57;1.65;;;27.90;99.90;;;;;;4974325;28;20027;-50
2022/09/05 09:02:12;;;;;;;11.25;2.40;;;27.90;99.90;;;;;;4974393;28;20137;-50
2022/09/05 09:04:57;;;;;;;7.97;2.17;;;27.90;99.90;;;;;;4974475;28;20023;-50
2022/09/05 09:07:42;;;;;;;16.83;1.95;;;27.90;99.90;;;;;;4974173;28;20296;-50
2022/09/05 09:10:37;;;;;;;11.68;1.80;;;27.90;99.90;;;;;;4974047;28;20463;-50
2022/09/05 09:13:05;;;;;;;5.57;1.70;;;27.90;99.90;;;;;;4974341;28;20051;-50
2022/09/05 09:16:05;;;;;;;10.40;3.17;;;28.00;99.90;;;;;;4974168;28;20034;-50
2022/09/05 09:18:49;;;;;;;7.65;2.03;;;27.90;99.90;;;;;;4973918;28;20034;-50
2022/09/05 09:22:06;;;;;;;7.30;1.98;;;27.90;99.90;;;;;;4974177;28;20133;-50
2022/09/05 09:24:36;;;;;;;6.68;1.45;;;27.90;99.90;;;;;;4965179;28;20061;-50
2022/09/05 09:27:08;;;;;;;32.92;3.47;;;27.80;99.90;;;;;;4973968;28;20030;-50
2022/09/05 09:29:38;;;;;;;7.15;2.47;;;27.80;99.90;;;;;;4973947;28;20038;-50
2022/09/05 09:32:13;;;;;;;7.07;1.40;;;27.80;99.90;;;;;;4973901;28;20078;-50
2022/09/05 09:35:01;;;;;;;28.55;2.13;;;27.80;99.90;;;;;;4973798;28;20027;-50
2022/09/05 09:37:49;;;;;;;9.88;1.75;;;27.80;99.90;;;;;;4973736;28;20023;-50
2022/09/05 09:40:36;;;;;;;8.98;1.80;;;27.80;99.90;;;;;;4973831;28;20479;-50
2022/09/05 09:43:05;;;;;;;;;;;27.80;99.90;;;;;;4974416;28;20030;-50
2022/09/05 09:45:54;;;;;;;7.65;1.85;;;27.80;99.90;;;;;;4973667;28;20392;-50
2022/09/05 09:48:46;;;;;;;6.72;1.73;;;27.80;99.90;;;;;;4973713;28;20034;-50
2022/09/05 09:51:31;;;;;;;6.90;2.17;;;27.80;99.90;;;;;;4973883;28;20475;-50
2022/09/05 09:54:29;;;;;;;9.70;2.13;;;27.80;99.90;;;;;;4973434;28;20050;-50
2022/09/05 09:56:58;;;;;;;10.13;3.90;;;27.80;99.90;;;;;;4973466;28;20375;-50
2022/09/05 09:59:46;;;;;;;11.45;3.30;;;27.90;99.90;;;;;;4973395;28;20034;-50
2022/09/05 10:02:24;;;;;;;9.38;2.10;;;27.90;99.90;;;;;;4972066;28;20042;-50
2022/09/05 10:05:27;;;;;;;14.02;4.60;;;28.00;99.90;;;;;;4973233;28;20026;-50
2022/09/05 10:08:05;;;;;;;7.35;2.47;;;28.00;99.90;;;;;;4973364;28;20025;-49
2022/09/05 10:10:58;;;;;;;25.90;3.28;;;28.00;99.90;;;;;;4972510;28;20092;-49
2022/09/05 10:13:45;;;;;;;12.02;2.08;;;28.10;99.90;;;;;;4973001;28;20027;-49
2022/09/05 10:16:26;;;;;;;13.05;2.33;;;28.10;99.90;;;;;;4973039;28;20085;-49
2022/09/05 10:18:53;;;;;;;18.08;3.22;;;28.10;99.90;;;;;;4972864;28;20031;-49
2022/09/05 10:21:18;;;;;;;13.48;2.15;;;28.10;99.90;;;;;;4972857;28;20034;-50
2022/09/05 10:24:10;;;;;;;17.02;2.60;;;28.10;99.90;;;;;;4972830;28;20030;-50
2022/09/05 10:27:09;;;;;;;20.15;9.52;;;28.20;99.90;;;;;;4972900;28;20443;-50
2022/09/05 10:30:01;;;;;;;12.38;5.25;;;28.20;99.90;;;;;;4972746;28;20035;-49
2022/09/05 10:32:47;;;;;;;8.88;4.00;;;28.20;99.90;;;;;;4972686;28;20048;-50
2022/09/05 10:35:55;;;;;;;10.65;5.15;;;28.20;99.90;;;;;;4972663;28;20031;-50
2022/09/05 10:38:35;;;;;;;10.90;2.97;;;28.20;99.90;;;;;;4971281;28;20030;-50
2022/09/05 10:41:10;;;;;;;11.43;2.72;;;28.20;99.90;;;;;;4972606;28;20027;-49
2022/09/05 10:43:48;;;;;;;13.48;3.33;;;28.20;99.90;;;;;;4972313;28;20088;-49
2022/09/05 10:46:31;;;;;;;6.47;2.83;;;28.20;99.90;;;;;;4972567;28;20038;-50
2022/09/05 10:49:04;;;;;;;12.65;2.20;;;28.20;99.90;;;;;;4972228;28;20065;-50
2022/09/05 10:51:38;;;;;;;5.88;2.00;;;28.20;99.90;;;;;;4972450;28;20471;-50
2022/09/05 10:54:19;;;;;;;15.52;2.85;;;28.30;99.90;;;;;;4972518;28;20340;-50
2022/09/05 10:56:56;;;;;;;12.55;2.42;;;28.30;99.90;;;;;;4972588;28;20023;-50
2022/09/05 10:59:28;;;;;;;;;;;28.30;99.90;;;;;;4972836;28;20512;-50
2022/09/05 11:02:05;;;;;;;11.90;2.70;;;28.40;99.90;;;;;;4972308;28;19922;-50
2022/09/05 11:04:56;;;;;;;6.55;2.33;;;28.40;99.90;;;;;;4972334;28;20034;-50
2022/09/05 11:07:37;;;;;;;9.38;1.67;;;28.40;99.90;;;;;;4972017;28;20364;-50
2022/09/05 11:10:21;;;;;;;5.93;2.15;;;28.50;99.90;;;;;;4972239;28;20039;-50
2022/09/05 11:13:13;;;;;;;6.95;2.75;;;28.50;99.90;;;;;;4972437;28;20089;-49
2022/09/05 11:15:54;;;;;;;9.75;2.15;;;28.60;99.90;;;;;;4970763;28;20494;-50
2022/09/05 11:18:35;;;;;;;10.15;2.25;;;28.60;99.90;;;;;;4972434;28;20056;-50
2022/09/05 11:21:14;;;;;;;7.38;1.85;;;28.60;99.90;;;;;;4973926;28;20026;-50
2022/09/05 11:23:43;;;;;;;7.75;1.73;;;28.60;99.90;;;;;;4976412;28;20109;-51
2022/09/05 11:26:36;;;;;;;4.60;1.23;;;28.70;99.90;;;;;;4976570;28;20066;-50
2022/09/05 11:29:10;;;;;;;4.07;1.38;;;28.70;99.90;;;;;;4976387;28;20117;-50
2022/09/05 11:32:15;;;;;;;7.32;1.92;;;28.70;99.90;;;;;;4976017;28;20022;-50
2022/09/05 11:34:56;;;;;;;8.93;1.35;;;28.80;99.90;;;;;;4976328;28;20106;-50
2022/09/05 11:37:45;;;;;;;7.28;1.33;;;28.80;99.90;;;;;;4976096;28;20430;-50
2022/09/05 11:40:37;;;;;;;5.10;1.80;;;28.90;99.90;;;;;;4961097;28;20031;-51
2022/09/05 11:43:22;;;;;;;7.85;2.10;;;28.90;99.90;;;;;;4972327;28;20686;-51
2022/09/05 11:46:15;;;;;;;10.00;1.95;;;28.90;99.90;;;;;;4974083;28;20027;-49
2022/09/05 11:49:06;;;;;;;9.95;4.78;;;29.00;99.90;;;;;;4974416;28;20042;-51
2022/09/05 11:52:06;;;;;;;9.55;3.60;;;29.00;99.90;;;;;;4973526;28;20030;-49
2022/09/05 11:55:02;;;;;;;7.18;2.58;;;29.10;99.90;;;;;;4975793;28;20027;-51
2022/09/05 11:58:05;;;;;;;8.45;2.80;;;29.10;99.90;;;;;;4975606;28;20034;-53
2022/09/05 12:00:55;;;;;;;12.90;6.07;;;29.20;99.90;;;;;;4975514;28;20540;-49
2022/09/05 12:03:31;;;;;;;15.52;2.90;;;29.20;99.90;;;;;;4974662;28;20114;-49
2022/09/05 12:06:16;;;;;;;5.43;2.38;;;29.30;99.90;;;;;;4972333;28;20046;-49
2022/09/05 12:08:51;;;;;;;23.00;2.58;;;29.30;99.90;;;;;;4972660;28;20031;-49
2022/09/05 12:11:29;;;;;;;9.82;2.22;;;29.40;99.90;;;;;;4972815;28;20055;-49
2022/09/05 12:14:12;;;;;;;5.15;1.70;;;29.50;99.90;;;;;;4973186;28;20046;-49
2022/09/05 12:17:16;;;;;;;9.02;2.15;;;29.50;99.90;;;;;;4973493;28;20018;-49
2022/09/05 12:20:17;;;;;;;6.63;1.90;;;29.50;99.90;;;;;;4974262;28;20043;-50
2022/09/05 12:22:54;;;;;;;12.70;6.15;;;29.60;99.90;;;;;;4974428;28;20369;-49
2022/09/05 12:25:42;;;;;;;8.80;3.97;;;29.70;99.90;;;;;;4973106;28;20029;-48
2022/09/05 12:28:13;;;;;;;7.60;1.98;;;29.70;99.90;;;;;;4974647;28;20022;-49
2022/09/05 12:30:41;;;;;;;7.68;2.35;;;29.80;99.90;;;;;;4972198;28;20054;-49
2022/09/05 12:33:18;;;;;;;13.23;2.85;;;29.70;99.90;;;;;;4972119;28;20041;-50
2022/09/05 12:36:02;;;;;;;13.20;2.72;;;29.70;99.90;;;;;;4974370;28;20993;-48
2022/09/05 12:38:47;;;;;;;13.05;5.75;;;29.70;99.90;;;;;;4974155;28;20050;-49
2022/09/05 12:41:25;;;;;;;13.93;4.18;;;29.70;99.90;;;;;;4956328;28;20395;-49
2022/09/05 12:44:00;;;;;;;19.15;11.68;;;29.60;99.90;;;;;;4963617;28;20450;-49
2022/09/05 12:46:45;;;;;;;8.15;2.83;;;29.50;99.90;;;;;;4973144;28;20038;-48
2022/09/05 12:49:43;;;;;;;16.50;7.90;;;29.50;99.90;;;;;;4974070;28;20372;-48
2022/09/05 12:52:18;;;;;;;20.27;11.15;;;29.60;99.90;;;;;;4974445;28;20518;-49
2022/09/05 12:54:50;;;;;;;17.05;5.95;;;29.60;99.90;;;;;;4970677;28;20031;-49
2022/09/05 12:57:31;;;;;;;7.35;2.38;;;29.60;99.90;;;;;;4974470;28;20035;-49
2022/09/05 13:00:03;;;;;;;17.88;8.65;;;29.60;99.90;;;;;;4973475;28;20034;-51
2022/09/05 13:02:32;;;;;;;14.43;6.70;;;29.70;99.90;;;;;;4974067;28;20064;-50
2022/09/05 13:05:02;;;;;;;16.95;6.43;;;29.70;99.90;;;;;;4972773;28;20019;-51
2022/09/05 13:07:33;;;;;;;9.02;4.07;;;29.70;99.90;;;;;;4959301;28;20023;-51
2022/09/05 13:10:22;;;;;;;13.10;5.15;;;29.70;99.90;;;;;;4964808;28;20043;-52
2022/09/05 13:12:57;;;;;;;16.05;5.60;;;29.80;99.90;;;;;;4962542;28;20030;-48
2022/09/05 13:15:34;;;;;;;7.18;3.22;;;29.80;99.90;;;;;;4960680;28;20447;-51
2022/09/05 13:18:06;;;;;;;18.90;7.72;;;29.80;99.90;;;;;;4953369;28;20074;-50
2022/09/05 13:20:43;;;;;;;6.82;2.47;;;29.80;99.90;;;;;;4964287;28;20037;-57
2022/09/05 13:23:26;;;;;;;7.40;3.03;;;29.80;99.90;;;;;;4959556;28;20034;-51
2022/09/05 13:26:02;;;;;;;11.73;4.82;;;29.90;99.90;;;;;;4954441;28;20043;-51
2022/09/05 13:28:42;;;;;;;7.80;4.18;;;29.90;99.90;;;;;;4953806;28;20395;-51
2022/09/05 13:31:09;;;;;;;10.70;2.75;;;30.00;99.90;;;;;;4953658;28;20552;-54
2022/09/05 13:33:46;;;;;;;10.52;3.03;;;30.00;99.90;;;;;;4965747;28;20427;-50
2022/09/05 13:36:22;;;;;;;12.70;3.17;;;30.00;99.90;;;;;;4961408;28;20475;-47
2022/09/05 13:38:58;;;;;;;7.88;2.65;;;30.00;99.90;;;;;;4973588;28;20352;-48
2022/09/05 13:41:30;;;;;;;10.60;2.65;;;30.00;99.90;;;;;;4973635;28;20035;-48
2022/09/05 13:44:00;;;;;;;11.32;3.95;;;30.00;99.90;;;;;;4972908;28;20121;-48
2022/09/05 13:46:37;;;;;;;16.25;4.47;;;29.90;99.90;;;;;;4973742;28;20015;-48
2022/09/05 13:49:27;;;;;;;9.27;2.65;;;29.90;99.90;;;;;;4973193;28;20050;-48
2022/09/05 13:52:24;;;;;;;10.02;3.30;;;29.80;99.90;;;;;;4973291;28;20031;-47
2022/09/05 13:54:50;;;;;;;9.88;2.35;;;29.70;99.90;;;;;;4958331;28;20500;-49
2022/09/05 13:57:32;;;;;;;13.13;3.10;;;29.60;99.90;;;;;;4953054;28;20026;-49
2022/09/05 14:00:18;;;;;;;14.23;3.53;;;29.50;99.90;;;;;;4954226;28;20047;-49
2022/09/05 14:03:11;;;;;;;10.90;2.65;;;29.40;99.90;;;;;;4932683;28;20166;-49